createdAt,value
2023-04-14T00:00:21.451Z,1004.03
2023-04-14T00:01:21.441Z,1004.04
2023-04-14T00:02:21.666Z,1004.03
2023-04-14T00:03:21.729Z,1004.03
2023-04-14T00:04:21.636Z,1004.02
2023-04-14T00:05:21.608Z,1003.98
2023-04-14T00:06:21.415Z,1004.04
2023-04-14T00:07:21.411Z,1003.99
2023-04-14T00:08:21.410Z,1004.01
2023-04-14T00:09:21.420Z,1004.01
2023-04-14T00:10:21.395Z,1004.02
2023-04-14T00:11:21.397Z,1004.02
2023-04-14T00:12:21.396Z,1004.02
2023-04-14T00:13:21.383Z,1004.03
2023-04-14T00:14:21.378Z,1004.01
2023-04-14T00:15:21.370Z,1004.04
2023-04-14T00:16:21.395Z,1004.00
2023-04-14T00:17:21.385Z,1004.04
2023-04-14T00:18:21.358Z,1004.02
2023-04-14T00:19:21.348Z,1004.06
2023-04-14T00:20:21.343Z,1004.03
2023-04-14T00:21:21.340Z,1004.08
2023-04-14T00:22:21.333Z,1004.12
2023-04-14T00:23:21.335Z,1004.10
2023-04-14T00:24:21.320Z,1004.14
2023-04-14T00:25:21.342Z,1004.14
2023-04-14T00:26:21.314Z,1004.17
2023-04-14T00:27:21.338Z,1004.17
2023-04-14T00:28:21.304Z,1004.13
2023-04-14T00:29:21.296Z,1004.16
2023-04-14T00:30:21.291Z,1004.13
2023-04-14T00:31:21.402Z,1004.16
2023-04-14T00:32:21.309Z,1004.16
2023-04-14T00:33:21.277Z,1004.14
2023-04-14T00:34:21.282Z,1004.12
2023-04-14T00:35:21.269Z,1004.12
2023-04-14T00:36:21.260Z,1004.12
2023-04-14T00:37:21.254Z,1004.08
2023-04-14T00:38:21.247Z,1004.09
2023-04-14T00:39:21.253Z,1004.12
2023-04-14T00:40:21.247Z,1004.10
2023-04-14T00:41:21.248Z,1004.11
2023-04-14T00:42:21.230Z,1004.14
2023-04-14T00:43:21.225Z,1004.17
2023-04-14T00:44:21.211Z,1004.18
2023-04-14T00:45:21.214Z,1004.18
2023-04-14T00:46:21.255Z,1004.18
2023-04-14T00:47:21.431Z,1004.21
2023-04-14T00:48:21.230Z,1004.28
2023-04-14T00:49:21.191Z,1004.23
2023-04-14T00:50:21.190Z,1004.24
2023-04-14T00:51:21.201Z,1004.22
2023-04-14T00:52:21.169Z,1004.24
2023-04-14T00:53:21.165Z,1004.26
2023-04-14T00:54:21.160Z,1004.28
2023-04-14T00:55:21.174Z,1004.30
2023-04-14T00:56:21.154Z,1004.32
2023-04-14T00:57:21.161Z,1004.32
2023-04-14T00:58:21.148Z,1004.29
2023-04-14T00:59:21.145Z,1004.35
2023-04-14T01:00:21.127Z,1004.37
2023-04-14T01:01:21.164Z,1004.42
2023-04-14T01:02:21.210Z,1004.41
2023-04-14T01:03:21.242Z,1004.41
2023-04-14T01:04:21.223Z,1004.41
2023-04-14T01:05:21.189Z,1004.40
2023-04-14T01:06:21.100Z,1004.42
2023-04-14T01:07:21.092Z,1004.44
2023-04-14T01:08:21.087Z,1004.44
2023-04-14T01:09:21.075Z,1004.42
2023-04-14T01:10:21.070Z,1004.46
2023-04-14T01:11:21.078Z,1004.45
2023-04-14T01:12:21.060Z,1004.43
2023-04-14T01:13:21.074Z,1004.41
2023-04-14T01:14:21.049Z,1004.42
2023-04-14T01:15:21.045Z,1004.42
2023-04-14T01:16:21.060Z,1004.41
2023-04-14T01:17:21.065Z,1004.45
2023-04-14T01:18:21.021Z,1004.47
2023-04-14T01:19:21.024Z,1004.49
2023-04-14T01:20:21.016Z,1004.48
2023-04-14T01:21:21.011Z,1004.50
2023-04-14T01:22:21.001Z,1004.48
2023-04-14T01:23:20.996Z,1004.49
2023-04-14T01:24:20.990Z,1004.52
2023-04-14T01:25:20.999Z,1004.52
2023-04-14T01:26:20.983Z,1004.54
2023-04-14T01:27:20.977Z,1004.56
2023-04-14T01:28:20.969Z,1004.59
2023-04-14T01:29:20.994Z,1004.56
2023-04-14T01:30:20.957Z,1004.60
2023-04-14T01:31:21.005Z,1004.59
2023-04-14T01:32:20.973Z,1004.58
2023-04-14T01:33:20.945Z,1004.57
2023-04-14T01:34:20.957Z,1004.58
2023-04-14T01:35:21.009Z,1004.58
2023-04-14T01:36:20.929Z,1004.57
2023-04-14T01:37:20.925Z,1004.57
2023-04-14T01:38:20.915Z,1004.57
2023-04-14T01:39:20.918Z,1004.58
2023-04-14T01:40:20.925Z,1004.60
2023-04-14T01:41:20.900Z,1004.57
2023-04-14T01:42:20.894Z,1004.56
2023-04-14T01:43:20.887Z,1004.58
2023-04-14T01:44:20.886Z,1004.60
2023-04-14T01:45:20.922Z,1004.62
2023-04-14T01:46:20.899Z,1004.59
2023-04-14T01:47:20.870Z,1004.60
2023-04-14T01:48:20.859Z,1004.57
2023-04-14T01:49:20.882Z,1004.57
2023-04-14T01:50:20.850Z,1004.58
2023-04-14T01:51:20.847Z,1004.58
2023-04-14T01:52:21.035Z,1004.55
2023-04-14T01:53:20.832Z,1004.58
2023-04-14T01:54:20.821Z,1004.55
2023-04-14T01:55:20.821Z,1004.54
2023-04-14T01:56:20.815Z,1004.55
2023-04-14T01:57:20.806Z,1004.56
2023-04-14T01:58:20.805Z,1004.54
2023-04-14T01:59:20.796Z,1004.56
2023-04-14T02:00:20.803Z,1004.58
2023-04-14T02:01:20.898Z,1004.60
2023-04-14T02:02:20.909Z,1004.57
2023-04-14T02:03:20.869Z,1004.58
2023-04-14T02:04:20.855Z,1004.57
2023-04-14T02:05:20.768Z,1004.63
2023-04-14T02:06:20.754Z,1004.61
2023-04-14T02:07:20.750Z,1004.59
2023-04-14T02:08:20.746Z,1004.62
2023-04-14T02:09:20.735Z,1004.60
2023-04-14T02:10:20.753Z,1004.62
2023-04-14T02:11:20.749Z,1004.62
2023-04-14T02:12:20.725Z,1004.64
2023-04-14T02:13:20.714Z,1004.65
2023-04-14T02:14:20.706Z,1004.62
2023-04-14T02:15:20.701Z,1004.67
2023-04-14T02:16:20.717Z,1004.63
2023-04-14T02:17:20.829Z,1004.66
2023-04-14T02:18:20.683Z,1004.66
2023-04-14T02:19:20.677Z,1004.69
2023-04-14T02:20:20.675Z,1004.70
2023-04-14T02:21:20.667Z,1004.70
2023-04-14T02:22:20.657Z,1004.71
2023-04-14T02:23:20.660Z,1004.71
2023-04-14T02:24:20.649Z,1004.68
2023-04-14T02:25:20.641Z,1004.70
2023-04-14T02:26:20.638Z,1004.74
2023-04-14T02:27:20.630Z,1004.74
2023-04-14T02:28:20.626Z,1004.70
2023-04-14T02:29:20.620Z,1004.70
2023-04-14T02:30:20.617Z,1004.71
2023-04-14T02:31:20.670Z,1004.73
2023-04-14T02:32:20.645Z,1004.73
2023-04-14T02:33:20.627Z,1004.72
2023-04-14T02:34:20.588Z,1004.72
2023-04-14T02:35:20.584Z,1004.72
2023-04-14T02:36:20.581Z,1004.72
2023-04-14T02:37:20.572Z,1004.74
2023-04-14T02:38:20.565Z,1004.76
2023-04-14T02:39:20.561Z,1004.75
2023-04-14T02:40:20.568Z,1004.77
2023-04-14T02:41:20.548Z,1004.74
2023-04-14T02:42:20.541Z,1004.76
2023-04-14T02:43:20.551Z,1004.75
2023-04-14T02:44:20.532Z,1004.75
2023-04-14T02:45:20.543Z,1004.75
2023-04-14T02:46:20.571Z,1004.78
2023-04-14T02:47:20.532Z,1004.77
2023-04-14T02:48:20.517Z,1004.75
2023-04-14T02:49:20.519Z,1004.78
2023-04-14T02:50:20.497Z,1004.80
2023-04-14T02:51:20.496Z,1004.75
2023-04-14T02:52:20.737Z,1004.79
2023-04-14T02:53:20.479Z,1004.75
2023-04-14T02:54:20.481Z,1004.77
2023-04-14T02:55:20.469Z,1004.76
2023-04-14T02:56:20.465Z,1004.76
2023-04-14T02:57:20.458Z,1004.75
2023-04-14T02:58:20.453Z,1004.75
2023-04-14T02:59:20.447Z,1004.75
2023-04-14T03:00:20.441Z,1004.75
2023-04-14T03:01:20.448Z,1004.73
2023-04-14T03:02:20.529Z,1004.72
2023-04-14T03:03:20.499Z,1004.74
2023-04-14T03:04:20.503Z,1004.76
2023-04-14T03:05:20.454Z,1004.75
2023-04-14T03:06:20.406Z,1004.76
2023-04-14T03:07:20.397Z,1004.82
2023-04-14T03:08:20.399Z,1004.80
2023-04-14T03:09:20.388Z,1004.84
2023-04-14T03:10:20.384Z,1004.87
2023-04-14T03:11:20.378Z,1004.84
2023-04-14T03:12:20.376Z,1004.84
2023-04-14T03:13:20.361Z,1004.86
2023-04-14T03:14:20.367Z,1004.83
2023-04-14T03:15:20.358Z,1004.83
2023-04-14T03:16:20.385Z,1004.79
2023-04-14T03:17:20.345Z,1004.80
2023-04-14T03:18:20.334Z,1004.76
2023-04-14T03:19:20.326Z,1004.75
2023-04-14T03:20:20.326Z,1004.77
2023-04-14T03:21:20.341Z,1004.78
2023-04-14T03:22:20.317Z,1004.75
2023-04-14T03:23:20.315Z,1004.75
2023-04-14T03:24:20.297Z,1004.74
2023-04-14T03:25:20.289Z,1004.78
2023-04-14T03:26:20.285Z,1004.77
2023-04-14T03:27:20.276Z,1004.75
2023-04-14T03:28:20.289Z,1004.79
2023-04-14T03:29:20.264Z,1004.80
2023-04-14T03:30:20.259Z,1004.85
2023-04-14T03:31:20.292Z,1004.81
2023-04-14T03:32:20.274Z,1004.83
2023-04-14T03:33:20.243Z,1004.90
2023-04-14T03:34:20.236Z,1004.87
2023-04-14T03:35:20.226Z,1004.88
2023-04-14T03:36:20.232Z,1004.91
2023-04-14T03:37:20.241Z,1004.86
2023-04-14T03:38:20.211Z,1004.88
2023-04-14T03:39:20.208Z,1004.90
2023-04-14T03:40:20.206Z,1004.84
2023-04-14T03:41:20.192Z,1004.83
2023-04-14T03:42:20.203Z,1004.84
2023-04-14T03:43:20.187Z,1004.85
2023-04-14T03:44:20.195Z,1004.84
2023-04-14T03:45:20.166Z,1004.87
2023-04-14T03:46:20.176Z,1004.87
2023-04-14T03:47:20.212Z,1004.87
2023-04-14T03:48:20.161Z,1004.90
2023-04-14T03:49:20.157Z,1004.87
2023-04-14T03:50:20.141Z,1004.88
2023-04-14T03:51:20.130Z,1004.91
2023-04-14T03:52:20.281Z,1004.92
2023-04-14T03:53:20.153Z,1004.91
2023-04-14T03:54:20.115Z,1004.93
2023-04-14T03:55:20.117Z,1004.95
2023-04-14T03:56:20.102Z,1004.96
2023-04-14T03:57:20.099Z,1004.94
2023-04-14T03:58:20.106Z,1004.92
2023-04-14T03:59:20.087Z,1004.93
2023-04-14T04:00:20.077Z,1004.94
2023-04-14T04:01:20.071Z,1004.94
2023-04-14T04:02:20.192Z,1004.89
2023-04-14T04:03:20.242Z,1004.88
2023-04-14T04:04:20.114Z,1004.90
2023-04-14T04:05:20.045Z,1004.93
2023-04-14T04:06:20.044Z,1004.90
2023-04-14T04:07:20.048Z,1004.86
2023-04-14T04:08:20.034Z,1004.87
2023-04-14T04:09:20.047Z,1004.91
2023-04-14T04:10:20.018Z,1004.88
2023-04-14T04:11:20.072Z,1004.92
2023-04-14T04:12:20.019Z,1004.94
2023-04-14T04:13:19.995Z,1004.98
2023-04-14T04:14:20.013Z,1004.95
2023-04-14T04:15:19.987Z,1004.94
2023-04-14T04:16:20.000Z,1004.99
2023-04-14T04:17:20.007Z,1005.03
2023-04-14T04:18:19.969Z,1005.01
2023-04-14T04:19:19.973Z,1005.02
2023-04-14T04:20:19.959Z,1005.03
2023-04-14T04:21:19.951Z,1005.04
2023-04-14T04:22:19.944Z,1005.09
2023-04-14T04:23:19.939Z,1005.07
2023-04-14T04:24:19.935Z,1005.14
2023-04-14T04:25:19.956Z,1005.10
2023-04-14T04:26:19.923Z,1005.10
2023-04-14T04:27:27.074Z,1005.07
2023-04-14T04:28:19.908Z,1005.09
2023-04-14T04:29:19.900Z,1005.10
2023-04-14T04:30:19.899Z,1005.12
2023-04-14T04:31:20.001Z,1005.12
2023-04-14T04:32:20.029Z,1005.10
2023-04-14T04:33:19.906Z,1005.11
2023-04-14T04:34:19.873Z,1005.07
2023-04-14T04:35:19.866Z,1005.09
2023-04-14T04:36:19.857Z,1005.07
2023-04-14T04:37:19.869Z,1005.12
2023-04-14T04:38:19.845Z,1005.09
2023-04-14T04:39:19.839Z,1005.11
2023-04-14T04:40:19.840Z,1005.13
2023-04-14T04:41:19.845Z,1005.17
2023-04-14T04:42:19.820Z,1005.13
2023-04-14T04:43:19.821Z,1005.17
2023-04-14T04:44:19.810Z,1005.18
2023-04-14T04:45:19.814Z,1005.16
2023-04-14T04:46:19.811Z,1005.14
2023-04-14T04:47:19.788Z,1005.11
2023-04-14T04:48:19.782Z,1005.13
2023-04-14T04:49:19.780Z,1005.13
2023-04-14T04:50:19.784Z,1005.14
2023-04-14T04:51:19.868Z,1005.11
2023-04-14T04:52:19.763Z,1005.13
2023-04-14T04:53:20.201Z,1005.10
2023-04-14T04:54:19.764Z,1005.12
2023-04-14T04:55:19.745Z,1005.11
2023-04-14T04:56:19.809Z,1005.10
2023-04-14T04:57:19.758Z,1005.08
2023-04-14T04:58:19.736Z,1005.09
2023-04-14T04:59:19.737Z,1005.08
2023-04-14T05:00:19.734Z,1005.11
2023-04-14T05:01:19.763Z,1005.10
2023-04-14T05:02:19.855Z,1005.13
2023-04-14T05:03:19.779Z,1005.11
2023-04-14T05:04:19.792Z,1005.10
2023-04-14T05:05:19.682Z,1005.14
2023-04-14T05:06:19.678Z,1005.15
2023-04-14T05:07:19.724Z,1005.16
2023-04-14T05:08:19.664Z,1005.17
2023-04-14T05:09:19.664Z,1005.15
2023-04-14T05:10:19.652Z,1005.12
2023-04-14T05:11:19.644Z,1005.15
2023-04-14T05:12:19.637Z,1005.16
2023-04-14T05:13:19.647Z,1005.13
2023-04-14T05:14:19.628Z,1005.13
2023-04-14T05:15:19.624Z,1005.14
2023-04-14T05:16:19.764Z,1005.19
2023-04-14T05:17:19.620Z,1005.14
2023-04-14T05:18:19.601Z,1005.15
2023-04-14T05:19:19.592Z,1005.14
2023-04-14T05:20:19.594Z,1005.16
2023-04-14T05:21:19.578Z,1005.16
2023-04-14T05:22:19.578Z,1005.18
2023-04-14T05:23:19.569Z,1005.20
2023-04-14T05:24:19.574Z,1005.15
2023-04-14T05:25:19.553Z,1005.20
2023-04-14T05:26:44.449Z,1005.20
2023-04-14T05:27:19.544Z,1005.24
2023-04-14T05:28:19.538Z,1005.28
2023-04-14T05:29:19.553Z,1005.25
2023-04-14T05:30:19.536Z,1005.27
2023-04-14T05:31:19.565Z,1005.27
2023-04-14T05:32:19.567Z,1005.32
2023-04-14T05:33:19.508Z,1005.32
2023-04-14T05:34:19.500Z,1005.31
2023-04-14T05:35:19.496Z,1005.29
2023-04-14T05:36:19.486Z,1005.32
2023-04-14T05:37:19.481Z,1005.30
2023-04-14T05:38:19.477Z,1005.34
2023-04-14T05:39:19.470Z,1005.32
2023-04-14T05:40:19.466Z,1005.29
2023-04-14T05:41:19.468Z,1005.30
2023-04-14T05:42:19.457Z,1005.33
2023-04-14T05:43:19.440Z,1005.29
2023-04-14T05:44:19.436Z,1005.28
2023-04-14T05:45:19.449Z,1005.29
2023-04-14T05:46:19.457Z,1005.28
2023-04-14T05:47:19.449Z,1005.27
2023-04-14T05:48:19.414Z,1005.24
2023-04-14T05:49:19.411Z,1005.28
2023-04-14T05:50:19.400Z,1005.30
2023-04-14T05:51:19.395Z,1005.31
2023-04-14T05:52:19.388Z,1005.29
2023-04-14T05:53:19.384Z,1005.30
2023-04-14T05:54:19.377Z,1005.34
2023-04-14T05:55:19.371Z,1005.36
2023-04-14T05:56:19.367Z,1005.37
2023-04-14T05:57:19.360Z,1005.34
2023-04-14T05:58:19.573Z,1005.34
2023-04-14T05:59:19.342Z,1005.36
2023-04-14T06:00:19.349Z,1005.31
2023-04-14T06:01:19.365Z,1005.35
2023-04-14T06:02:19.417Z,1005.34
2023-04-14T06:03:19.550Z,1005.36
2023-04-14T06:04:19.594Z,1005.35
2023-04-14T06:05:19.380Z,1005.33
2023-04-14T06:06:19.299Z,1005.32
2023-04-14T06:07:19.295Z,1005.33
2023-04-14T06:08:19.294Z,1005.32
2023-04-14T06:09:19.282Z,1005.33
2023-04-14T06:10:19.281Z,1005.32
2023-04-14T06:11:19.279Z,1005.26
2023-04-14T06:12:19.269Z,1005.28
2023-04-14T06:13:19.257Z,1005.24
2023-04-14T06:14:19.250Z,1005.26
2023-04-14T06:15:19.248Z,1005.28
2023-04-14T06:16:19.263Z,1005.24
2023-04-14T06:17:19.324Z,1005.21
2023-04-14T06:18:19.226Z,1005.25
2023-04-14T06:19:19.223Z,1005.24
2023-04-14T06:20:19.222Z,1005.27
2023-04-14T06:21:19.208Z,1005.25
2023-04-14T06:22:19.226Z,1005.24
2023-04-14T06:23:19.197Z,1005.23
2023-04-14T06:24:19.190Z,1005.19
2023-04-14T06:25:19.192Z,1005.17
2023-04-14T06:26:19.179Z,1005.17
2023-04-14T06:27:19.173Z,1005.14
2023-04-14T06:28:19.171Z,1005.14
2023-04-14T06:29:19.160Z,1005.18
2023-04-14T06:30:19.156Z,1005.17
2023-04-14T06:31:19.182Z,1005.13
2023-04-14T06:32:19.202Z,1005.15
2023-04-14T06:33:19.158Z,1005.15
2023-04-14T06:34:19.132Z,1005.12
2023-04-14T06:35:31.967Z,1005.14
2023-04-14T06:36:19.120Z,1005.12
2023-04-14T06:37:19.123Z,1005.10
2023-04-14T06:38:19.106Z,1005.15
2023-04-14T06:39:19.099Z,1005.17
2023-04-14T06:40:19.095Z,1005.15
2023-04-14T06:41:19.088Z,1005.16
2023-04-14T06:42:19.095Z,1005.14
2023-04-14T06:43:19.075Z,1005.13
2023-04-14T06:44:19.076Z,1005.16
2023-04-14T06:45:19.064Z,1005.16
2023-04-14T06:46:19.143Z,1005.17
2023-04-14T06:47:19.058Z,1005.15
2023-04-14T06:48:19.069Z,1005.15
2023-04-14T06:49:19.077Z,1005.18
2023-04-14T06:50:19.042Z,1005.18
2023-04-14T06:51:19.037Z,1005.14
2023-04-14T06:52:19.025Z,1005.14
2023-04-14T06:53:19.022Z,1005.17
2023-04-14T06:54:19.014Z,1005.17
2023-04-14T06:55:19.028Z,1005.20
2023-04-14T06:56:19.005Z,1005.16
2023-04-14T06:57:19.007Z,1005.19
2023-04-14T06:58:19.035Z,1005.13
2023-04-14T06:59:18.996Z,1005.14
2023-04-14T07:00:18.984Z,1005.14
2023-04-14T07:01:19.011Z,1005.19
2023-04-14T07:02:19.028Z,1005.13
2023-04-14T07:03:19.202Z,1005.13
2023-04-14T07:04:18.998Z,1005.14
2023-04-14T07:05:18.985Z,1005.10
2023-04-14T07:06:18.954Z,1005.09
2023-04-14T07:07:18.943Z,1005.06
2023-04-14T07:08:18.943Z,1005.04
2023-04-14T07:09:18.955Z,1005.08
2023-04-14T07:10:18.927Z,1005.08
2023-04-14T07:11:18.921Z,1005.04
2023-04-14T07:12:18.912Z,1005.05
2023-04-14T07:13:18.914Z,1005.04
2023-04-14T07:14:18.908Z,1005.01
2023-04-14T07:15:18.912Z,1005.04
2023-04-14T07:16:18.924Z,1005.02
2023-04-14T07:17:18.923Z,1005.03
2023-04-14T07:18:18.888Z,1005.02
2023-04-14T07:19:18.882Z,1005.02
2023-04-14T07:20:18.871Z,1004.99
2023-04-14T07:21:18.892Z,1005.00
2023-04-14T07:22:18.859Z,1004.99
2023-04-14T07:23:18.864Z,1004.98
2023-04-14T07:24:18.854Z,1004.97
2023-04-14T07:25:18.846Z,1004.97
2023-04-14T07:26:18.841Z,1005.00
2023-04-14T07:27:18.836Z,1005.00
2023-04-14T07:28:18.828Z,1005.00
2023-04-14T07:29:18.824Z,1004.98
2023-04-14T07:30:18.824Z,1004.98
2023-04-14T07:31:18.850Z,1004.96
2023-04-14T07:32:18.862Z,1004.97
2023-04-14T07:33:18.807Z,1005.00
2023-04-14T07:34:18.802Z,1004.97
2023-04-14T07:35:18.795Z,1004.93
2023-04-14T07:36:18.792Z,1004.90
2023-04-14T07:37:18.806Z,1004.92
2023-04-14T07:38:18.781Z,1004.90
2023-04-14T07:39:22.509Z,1004.92
2023-04-14T07:40:18.775Z,1004.90
2023-04-14T07:41:18.770Z,1004.91
2023-04-14T07:42:18.765Z,1004.93
2023-04-14T07:43:18.761Z,1004.90
2023-04-14T07:44:18.758Z,1004.90
2023-04-14T07:45:18.751Z,1004.86
2023-04-14T07:46:18.787Z,1004.88
2023-04-14T07:47:18.765Z,1004.86
2023-04-14T07:48:18.736Z,1004.85
2023-04-14T07:49:18.736Z,1004.90
2023-04-14T07:50:19.877Z,1004.89
2023-04-14T07:51:18.728Z,1004.92
2023-04-14T07:52:18.734Z,1004.92
2023-04-14T07:53:18.797Z,1004.97
2023-04-14T07:54:18.724Z,1004.99
2023-04-14T07:55:18.709Z,1004.99
2023-04-14T07:56:18.701Z,1004.99
2023-04-14T07:57:18.700Z,1004.97
2023-04-14T07:58:18.697Z,1004.95
2023-04-14T07:59:18.702Z,1004.95
2023-04-14T08:00:18.707Z,1004.94
2023-04-14T08:01:18.684Z,1004.93
2023-04-14T08:02:18.760Z,1004.95
2023-04-14T08:03:18.884Z,1005.00
2023-04-14T08:04:18.712Z,1005.03
2023-04-14T08:05:18.784Z,1005.11
2023-04-14T08:06:18.664Z,1005.15
2023-04-14T08:07:18.672Z,1005.18
2023-04-14T08:08:18.915Z,1005.16
2023-04-14T08:09:18.683Z,1005.19
2023-04-14T08:11:18.660Z,1005.25
2023-04-14T08:12:18.690Z,1005.26
2023-04-14T08:13:18.650Z,1005.27
2023-04-14T08:14:18.849Z,1005.28
2023-04-14T08:15:18.642Z,1005.27
2023-04-14T08:16:18.705Z,1005.30
2023-04-14T08:17:18.668Z,1005.27
2023-04-14T08:18:18.649Z,1005.31
2023-04-14T08:19:18.658Z,1005.28
2023-04-14T08:20:18.670Z,1005.27
2023-04-14T08:21:18.632Z,1005.29
2023-04-14T08:22:18.630Z,1005.32
2023-04-14T08:23:18.640Z,1005.29
2023-04-14T08:24:18.672Z,1005.37
2023-04-14T08:25:18.694Z,1005.41
2023-04-14T08:26:18.638Z,1005.37
2023-04-14T08:27:18.629Z,1005.41
2023-04-14T08:28:18.628Z,1005.37
2023-04-14T08:29:18.627Z,1005.36
2023-04-14T08:30:18.637Z,1005.39
2023-04-14T08:31:18.667Z,1005.35
2023-04-14T08:32:18.647Z,1005.40
2023-04-14T08:33:18.623Z,1005.41
2023-04-14T08:34:21.662Z,1005.36
2023-04-14T08:35:38.042Z,1005.36
2023-04-14T08:36:18.628Z,1005.42
2023-04-14T08:37:18.632Z,1005.35
2023-04-14T08:38:18.626Z,1005.38
2023-04-14T08:39:18.627Z,1005.32
2023-04-14T08:40:18.631Z,1005.38
2023-04-14T08:41:18.655Z,1005.37
2023-04-14T08:42:18.626Z,1005.30
2023-04-14T08:43:18.627Z,1005.14
2023-04-14T08:44:18.673Z,1005.06
2023-04-14T08:45:18.639Z,1005.08
2023-04-14T08:46:18.693Z,1005.02
2023-04-14T08:47:18.650Z,1004.97
2023-04-14T08:48:18.633Z,1005.02
2023-04-14T08:49:18.632Z,1004.91
2023-04-14T08:50:18.651Z,1004.89
2023-04-14T08:51:18.629Z,1004.91
2023-04-14T08:52:18.634Z,1004.89
2023-04-14T08:53:18.630Z,1004.86
2023-04-14T08:54:18.647Z,1004.86
2023-04-14T08:55:18.634Z,1004.86
2023-04-14T08:56:18.656Z,1004.90
2023-04-14T08:57:18.658Z,1004.83
2023-04-14T08:58:18.634Z,1004.80
2023-04-14T08:59:18.639Z,1004.83
2023-04-14T09:00:18.629Z,1004.82
2023-04-14T09:01:18.653Z,1004.78
2023-04-14T09:02:18.759Z,1004.76
2023-04-14T09:03:18.813Z,1004.72
2023-04-14T09:04:18.800Z,1004.74
2023-04-14T09:05:18.623Z,1004.73
2023-04-14T09:06:18.670Z,1004.74
2023-04-14T09:07:18.617Z,1004.75
2023-04-14T09:08:18.973Z,1004.74
2023-04-14T09:09:18.614Z,1004.75
2023-04-14T09:10:18.632Z,1004.72
2023-04-14T09:11:18.611Z,1004.74
2023-04-14T09:12:18.625Z,1004.70
2023-04-14T09:13:18.631Z,1004.71
2023-04-14T09:14:18.610Z,1004.66
2023-04-14T09:15:18.607Z,1004.65
2023-04-14T09:16:18.637Z,1004.67
2023-04-14T09:17:18.679Z,1004.64
2023-04-14T09:18:18.616Z,1004.66
2023-04-14T09:19:18.602Z,1004.66
2023-04-14T09:20:35.654Z,1004.66
2023-04-14T09:21:49.795Z,1004.64
2023-04-14T09:22:18.599Z,1004.62
2023-04-14T09:23:18.588Z,1004.58
2023-04-14T09:24:18.596Z,1004.61
2023-04-14T09:25:18.606Z,1004.57
2023-04-14T09:26:18.582Z,1004.56
2023-04-14T09:27:18.581Z,1004.58
2023-04-14T09:28:18.597Z,1004.57
2023-04-14T09:29:18.602Z,1004.56
2023-04-14T09:30:18.577Z,1004.55
2023-04-14T09:31:18.640Z,1004.50
2023-04-14T09:32:18.601Z,1004.53
2023-04-14T09:33:18.649Z,1004.54
2023-04-14T09:34:18.703Z,1004.53
2023-04-14T09:35:18.569Z,1004.54
2023-04-14T09:36:18.568Z,1004.52
2023-04-14T09:37:18.557Z,1004.48
2023-04-14T09:38:18.554Z,1004.43
2023-04-14T09:39:18.560Z,1004.46
2023-04-14T09:40:18.547Z,1004.50
2023-04-14T09:41:18.549Z,1004.47
2023-04-14T09:42:18.562Z,1004.49
2023-04-14T09:43:18.540Z,1004.42
2023-04-14T09:44:18.544Z,1004.46
2023-04-14T09:45:18.598Z,1004.42
2023-04-14T09:46:18.554Z,1004.47
2023-04-14T09:47:18.624Z,1004.46
2023-04-14T09:48:18.539Z,1004.48
2023-04-14T09:49:18.524Z,1004.46
2023-04-14T09:50:18.521Z,1004.44
2023-04-14T09:51:18.523Z,1004.51
2023-04-14T09:52:18.520Z,1004.47
2023-04-14T09:53:18.516Z,1004.46
2023-04-14T09:54:18.513Z,1004.45
2023-04-14T09:55:18.505Z,1004.44
2023-04-14T09:56:18.505Z,1004.47
2023-04-14T09:57:18.512Z,1004.45
2023-04-14T09:58:18.508Z,1004.43
2023-04-14T09:59:18.495Z,1004.44
2023-04-14T10:00:18.515Z,1004.39
2023-04-14T10:01:18.573Z,1004.45
2023-04-14T10:02:18.642Z,1004.42
2023-04-14T10:03:18.549Z,1004.46
2023-04-14T10:04:18.525Z,1004.42
2023-04-14T10:05:18.577Z,1004.43
2023-04-14T10:06:18.482Z,1004.37
2023-04-14T10:07:18.487Z,1004.34
2023-04-14T10:08:18.923Z,1004.33
2023-04-14T10:09:18.470Z,1004.32
2023-04-14T10:10:18.514Z,1004.30
2023-04-14T10:11:18.472Z,1004.28
2023-04-14T10:12:18.472Z,1004.25
2023-04-14T10:13:18.454Z,1004.23
2023-04-14T10:14:18.455Z,1004.28
2023-04-14T10:15:18.453Z,1004.27
2023-04-14T10:16:18.542Z,1004.25
2023-04-14T10:17:18.528Z,1004.19
2023-04-14T10:18:18.638Z,1004.19
2023-04-14T10:19:18.443Z,1004.17
2023-04-14T10:20:18.469Z,1004.13
2023-04-14T10:21:18.432Z,1004.11
2023-04-14T10:22:18.459Z,1004.04
2023-04-14T10:23:18.433Z,1004.05
2023-04-14T10:24:18.429Z,1004.07
2023-04-14T10:25:18.433Z,1003.97
2023-04-14T10:26:18.419Z,1003.99
2023-04-14T10:27:18.418Z,1003.97
2023-04-14T10:28:18.419Z,1004.01
2023-04-14T10:29:18.412Z,1003.98
2023-04-14T10:30:18.470Z,1003.96
2023-04-14T10:31:18.470Z,1003.97
2023-04-14T10:32:18.411Z,1003.96
2023-04-14T10:33:18.421Z,1003.95
2023-04-14T10:34:18.405Z,1003.95
2023-04-14T10:35:18.401Z,1003.95
2023-04-14T10:36:18.394Z,1003.93
2023-04-14T10:37:18.386Z,1003.92
2023-04-14T10:38:18.388Z,1003.88
2023-04-14T10:39:18.387Z,1003.90
2023-04-14T10:40:18.881Z,1003.87
2023-04-14T10:41:18.381Z,1003.86
2023-04-14T10:42:18.377Z,1003.86
2023-04-14T10:43:18.374Z,1003.82
2023-04-14T10:44:18.371Z,1003.78
2023-04-14T10:45:18.368Z,1003.77
2023-04-14T10:46:18.747Z,1003.77
2023-04-14T10:47:18.403Z,1003.76
2023-04-14T10:48:18.365Z,1003.77
2023-04-14T10:49:18.374Z,1003.67
2023-04-14T10:50:18.457Z,1003.68
2023-04-14T10:51:18.367Z,1003.65
2023-04-14T10:52:18.355Z,1003.62
2023-04-14T10:53:18.343Z,1003.65
2023-04-14T10:54:18.348Z,1003.62
2023-04-14T10:55:18.348Z,1003.63
2023-04-14T10:56:18.335Z,1003.56
2023-04-14T10:57:18.332Z,1003.60
2023-04-14T10:58:18.333Z,1003.58
2023-04-14T10:59:18.326Z,1003.56
2023-04-14T11:00:18.328Z,1003.59
2023-04-14T11:01:18.376Z,1003.53
2023-04-14T11:02:18.430Z,1003.51
2023-04-14T11:03:18.506Z,1003.47
2023-04-14T11:04:18.418Z,1003.46
2023-04-14T11:05:18.338Z,1003.48
2023-04-14T11:06:18.314Z,1003.46
2023-04-14T11:07:18.313Z,1003.46
2023-04-14T11:08:18.649Z,1003.49
2023-04-14T11:09:18.299Z,1003.48
2023-04-14T11:10:18.494Z,1003.46
2023-04-14T11:11:18.291Z,1003.44
2023-04-14T11:12:18.290Z,1003.50
2023-04-14T11:13:18.285Z,1003.44
2023-04-14T11:14:18.284Z,1003.48
2023-04-14T11:15:18.285Z,1003.42
2023-04-14T11:16:18.296Z,1003.45
2023-04-14T11:17:18.335Z,1003.41
2023-04-14T11:18:18.318Z,1003.42
2023-04-14T11:19:18.273Z,1003.42
2023-04-14T11:20:18.350Z,1003.41
2023-04-14T11:21:18.288Z,1003.36
2023-04-14T11:22:18.271Z,1003.41
2023-04-14T11:23:18.270Z,1003.42
2023-04-14T11:24:18.254Z,1003.37
2023-04-14T11:25:19.125Z,1003.41
2023-04-14T11:26:18.249Z,1003.37
2023-04-14T11:27:18.250Z,1003.35
2023-04-14T11:28:18.250Z,1003.29
2023-04-14T11:29:18.294Z,1003.35
2023-04-14T11:30:18.237Z,1003.33
2023-04-14T11:31:19.023Z,1003.36
2023-04-14T11:32:18.265Z,1003.34
2023-04-14T11:33:18.306Z,1003.33
2023-04-14T11:34:18.223Z,1003.36
2023-04-14T11:35:18.234Z,1003.34
2023-04-14T11:36:18.316Z,1003.30
2023-04-14T11:37:19.120Z,1003.37
2023-04-14T11:38:18.211Z,1003.35
2023-04-14T11:39:18.222Z,1003.29
2023-04-14T11:40:18.206Z,1003.30
2023-04-14T11:41:18.216Z,1003.26
2023-04-14T11:42:18.207Z,1003.27
2023-04-14T11:43:19.022Z,1003.20
2023-04-14T11:44:18.196Z,1003.20
2023-04-14T11:45:18.191Z,1003.19
2023-04-14T11:46:18.214Z,1003.18
2023-04-14T11:47:18.185Z,1003.21
2023-04-14T11:48:18.181Z,1003.22
2023-04-14T11:49:18.914Z,1003.23
2023-04-14T11:50:18.185Z,1003.26
2023-04-14T11:51:18.173Z,1003.20
2023-04-14T11:52:18.171Z,1003.24
2023-04-14T11:53:18.201Z,1003.22
2023-04-14T11:54:18.219Z,1003.23
2023-04-14T11:55:18.180Z,1003.19
2023-04-14T11:56:18.159Z,1003.22
2023-04-14T11:57:18.167Z,1003.18
2023-04-14T11:58:18.157Z,1003.18
2023-04-14T11:59:18.160Z,1003.16
2023-04-14T12:00:18.153Z,1003.12
2023-04-14T12:01:18.149Z,1003.12
2023-04-14T12:02:18.327Z,1003.13
2023-04-14T12:03:18.396Z,1003.11
2023-04-14T12:04:18.278Z,1003.11
2023-04-14T12:05:18.156Z,1003.06
2023-04-14T12:06:18.142Z,1003.06